createdAt,value
2022-12-18T00:01:45.755Z,93.20
2022-12-18T00:04:31.169Z,93.50
2022-12-18T00:07:16.571Z,93.00
2022-12-18T00:10:01.979Z,92.70
2022-12-18T00:12:47.454Z,93.50
2022-12-18T00:15:35.882Z,93.80
2022-12-18T00:18:21.200Z,93.20
2022-12-18T00:21:08.790Z,92.90
2022-12-18T00:23:54.281Z,93.00
2022-12-18T00:26:40.580Z,93.20
2022-12-18T00:29:25.885Z,93.00
2022-12-18T00:32:11.325Z,92.40
2022-12-18T00:34:56.658Z,93.00
2022-12-18T00:37:41.987Z,92.80
2022-12-18T00:40:27.312Z,92.90
2022-12-18T00:43:12.747Z,93.60
2022-12-18T00:45:58.161Z,92.70
2022-12-18T00:48:43.687Z,93.80
2022-12-18T00:51:29.463Z,92.70
2022-12-18T00:54:14.808Z,92.50
2022-12-18T00:56:59.942Z,92.00
2022-12-18T00:59:45.342Z,92.90
2022-12-18T01:02:30.841Z,93.40
2022-12-18T01:05:16.635Z,93.10
2022-12-18T01:08:01.923Z,93.50
2022-12-18T01:10:47.409Z,93.30
2022-12-18T01:13:32.630Z,92.90
2022-12-18T01:16:18.807Z,91.80
2022-12-18T01:19:04.134Z,92.50
2022-12-18T01:21:49.440Z,93.80
2022-12-18T01:24:35.006Z,93.50
2022-12-18T01:27:20.328Z,93.80
2022-12-18T01:30:06.446Z,93.40
2022-12-18T01:32:51.723Z,93.80
2022-12-18T01:35:42.890Z,92.70
2022-12-18T01:38:29.537Z,92.90
2022-12-18T01:41:17.938Z,92.50
2022-12-18T01:44:23.425Z,92.20
2022-12-18T01:47:24.556Z,91.30
2022-12-18T01:50:15.858Z,92.90
2022-12-18T01:53:14.940Z,92.40
2022-12-18T01:56:00.592Z,92.60
2022-12-18T01:59:02.861Z,93.10
2022-12-18T02:01:48.246Z,93.80
2022-12-18T02:04:33.488Z,93.00
2022-12-18T02:07:37.920Z,92.50
2022-12-18T02:10:28.276Z,92.00
2022-12-18T02:13:30.628Z,92.50
2022-12-18T02:16:27.988Z,92.30
2022-12-18T02:19:55.839Z,92.40
2022-12-18T02:22:43.892Z,92.40
2022-12-18T02:26:03.268Z,92.80
2022-12-18T02:29:05.917Z,93.00
2022-12-18T02:31:53.415Z,92.80
2022-12-18T02:34:40.790Z,92.30
2022-12-18T02:37:28.061Z,92.60
2022-12-18T02:40:15.078Z,92.00
2022-12-18T02:43:08.113Z,92.80
2022-12-18T02:46:01.388Z,92.80
2022-12-18T02:48:47.262Z,92.20
2022-12-18T02:52:11.145Z,92.70
2022-12-18T02:55:10.303Z,91.50
2022-12-18T02:57:57.825Z,92.40
2022-12-18T03:00:51.208Z,92.10
2022-12-18T03:03:52.973Z,92.70
2022-12-18T03:06:48.001Z,92.30
2022-12-18T03:09:39.251Z,92.30
2022-12-18T03:12:33.440Z,92.30
2022-12-18T03:15:24.736Z,93.10
2022-12-18T03:18:15.920Z,93.40
2022-12-18T03:21:06.187Z,94.00
2022-12-18T03:23:53.353Z,94.10
2022-12-18T03:26:44.704Z,93.30
2022-12-18T03:29:38.085Z,93.00
2022-12-18T03:32:31.933Z,93.80
2022-12-18T03:35:23.935Z,94.00
2022-12-18T03:38:11.372Z,94.00
2022-12-18T03:41:17.954Z,94.10
2022-12-18T03:44:19.094Z,94.00
2022-12-18T03:47:32.464Z,93.60
2022-12-18T03:50:27.140Z,92.70
2022-12-18T03:53:29.817Z,93.20
2022-12-18T03:56:18.067Z,93.30
2022-12-18T03:59:05.547Z,92.30
2022-12-18T04:01:53.765Z,93.30
2022-12-18T04:04:40.812Z,93.40
2022-12-18T04:07:26.566Z,93.70
2022-12-18T04:10:13.043Z,93.90
2022-12-18T04:12:59.238Z,94.30
2022-12-18T04:15:44.483Z,93.30
2022-12-18T04:18:29.881Z,93.90
2022-12-18T04:21:15.557Z,93.10
2022-12-18T04:24:00.693Z,92.00
2022-12-18T04:26:46.197Z,91.90
2022-12-18T04:29:31.409Z,92.00
2022-12-18T04:32:16.915Z,91.90
2022-12-18T04:35:03.016Z,92.40
2022-12-18T04:37:48.380Z,93.10
2022-12-18T04:40:36.987Z,93.30
2022-12-18T04:43:22.545Z,92.90
2022-12-18T04:46:08.946Z,92.60
2022-12-18T04:48:53.974Z,93.10
2022-12-18T04:51:39.530Z,93.20
2022-12-18T04:54:24.917Z,93.50
2022-12-18T04:57:10.884Z,93.40
2022-12-18T04:59:56.058Z,93.30
2022-12-18T05:02:41.509Z,93.80
2022-12-18T05:05:26.772Z,92.90
2022-12-18T05:08:11.987Z,93.80
2022-12-18T05:11:09.028Z,93.20
2022-12-18T05:13:56.890Z,92.30
2022-12-18T05:16:42.036Z,93.20
2022-12-18T05:19:27.543Z,93.60
2022-12-18T05:22:13.135Z,94.00
2022-12-18T05:24:58.305Z,93.90
2022-12-18T05:27:43.741Z,93.40
2022-12-18T05:30:29.253Z,93.20
2022-12-18T05:33:14.674Z,93.60
2022-12-18T05:36:03.488Z,93.60
2022-12-18T05:38:48.680Z,93.30
2022-12-18T05:41:34.009Z,92.70
2022-12-18T05:44:19.350Z,93.30
2022-12-18T05:47:05.171Z,93.00
2022-12-18T05:49:50.166Z,93.00
2022-12-18T05:52:35.630Z,93.50
2022-12-18T05:55:21.052Z,93.70
2022-12-18T05:58:08.383Z,93.60
2022-12-18T06:00:53.508Z,93.10
2022-12-18T06:03:39.721Z,92.90
2022-12-18T06:06:28.184Z,92.30
2022-12-18T06:09:14.050Z,92.20
2022-12-18T06:11:59.462Z,92.40
2022-12-18T06:14:44.989Z,92.80
2022-12-18T06:17:31.735Z,93.10
2022-12-18T06:20:17.017Z,92.60
2022-12-18T06:23:02.534Z,92.50
2022-12-18T06:25:47.786Z,92.60
2022-12-18T06:28:33.116Z,92.70
2022-12-18T06:31:18.623Z,93.30
2022-12-18T06:34:05.468Z,93.40
2022-12-18T06:36:50.667Z,92.90
2022-12-18T06:39:36.002Z,93.00
2022-12-18T06:42:25.689Z,93.60
2022-12-18T06:45:12.320Z,93.60
2022-12-18T06:47:57.638Z,92.80
2022-12-18T06:50:44.057Z,93.00
2022-12-18T06:53:29.653Z,93.60
2022-12-18T06:56:15.302Z,93.30
2022-12-18T06:59:01.030Z,93.30
2022-12-18T07:01:46.845Z,92.50
2022-12-18T07:04:32.761Z,93.30
2022-12-18T07:07:17.996Z,93.30
2022-12-18T07:10:03.719Z,92.80
2022-12-18T07:12:48.863Z,93.60
2022-12-18T07:15:34.221Z,93.60
2022-12-18T07:18:19.416Z,93.40
2022-12-18T07:21:11.998Z,93.80
2022-12-18T07:23:57.609Z,94.10
2022-12-18T07:26:42.977Z,94.00
2022-12-18T07:29:28.364Z,93.80
2022-12-18T07:32:13.755Z,93.60
2022-12-18T07:34:59.652Z,93.90
2022-12-18T07:37:45.159Z,94.10
2022-12-18T07:40:30.469Z,94.10
2022-12-18T07:43:15.874Z,94.00
2022-12-18T07:46:02.883Z,93.80
2022-12-18T07:48:50.047Z,93.40
2022-12-18T07:51:35.688Z,93.50
2022-12-18T07:54:21.063Z,93.70
2022-12-18T07:57:16.495Z,93.10
2022-12-18T08:00:12.529Z,93.30
2022-12-18T08:02:58.174Z,93.40
2022-12-18T08:05:43.468Z,93.50
2022-12-18T08:08:29.972Z,93.40
2022-12-18T08:11:15.328Z,93.20
2022-12-18T08:14:00.685Z,93.00
2022-12-18T08:16:46.235Z,93.40
2022-12-18T08:19:31.526Z,93.20
2022-12-18T08:22:16.942Z,93.30
2022-12-18T08:25:03.054Z,93.40
2022-12-18T08:27:48.212Z,93.40
2022-12-18T08:30:33.741Z,93.60
2022-12-18T08:33:19.045Z,93.60
2022-12-18T08:36:05.901Z,93.40
2022-12-18T08:38:51.803Z,93.50
2022-12-18T08:41:36.871Z,93.50
2022-12-18T08:44:40.453Z,93.50
2022-12-18T08:47:26.877Z,93.60
2022-12-18T08:50:13.218Z,93.80
2022-12-18T08:52:58.489Z,93.90
2022-12-18T08:55:48.631Z,94.00
2022-12-18T08:58:35.721Z,94.00
2022-12-18T09:01:21.842Z,94.10
2022-12-18T09:04:07.385Z,94.00
2022-12-18T09:06:56.318Z,94.00
2022-12-18T09:09:41.600Z,93.90
2022-12-18T09:12:26.890Z,93.90
2022-12-18T09:15:12.545Z,94.10
2022-12-18T09:17:57.690Z,94.30
2022-12-18T09:20:43.406Z,94.70
2022-12-18T09:23:28.930Z,94.70
2022-12-18T09:26:14.301Z,94.70
2022-12-18T09:28:59.633Z,94.70
2022-12-18T09:31:45.056Z,94.60
2022-12-18T09:34:30.437Z,94.90
2022-12-18T09:37:16.059Z,95.10
2022-12-18T09:40:01.433Z,94.90
2022-12-18T09:42:53.098Z,94.90
2022-12-18T09:45:50.706Z,94.90
2022-12-18T09:48:48.616Z,94.90
2022-12-18T09:51:40.491Z,94.90
2022-12-18T09:54:50.886Z,95.10
2022-12-18T09:57:41.929Z,95.00
2022-12-18T10:00:27.457Z,95.10
2022-12-18T10:03:15.412Z,94.70
2022-12-18T10:06:28.230Z,95.10
2022-12-18T10:09:24.362Z,95.10
2022-12-18T10:12:15.069Z,94.80
2022-12-18T10:15:15.854Z,94.70
2022-12-18T10:18:28.092Z,94.20
2022-12-18T10:21:21.915Z,94.40
2022-12-18T10:24:16.269Z,94.80
2022-12-18T10:27:23.117Z,94.30
2022-12-18T10:30:17.265Z,93.70
2022-12-18T10:33:03.815Z,94.10
2022-12-18T10:35:53.619Z,93.80
2022-12-18T10:38:39.268Z,93.50
2022-12-18T10:41:29.262Z,93.70
2022-12-18T10:44:21.510Z,93.40
2022-12-18T10:47:15.150Z,93.90
2022-12-18T10:50:00.775Z,93.80
2022-12-18T10:52:58.354Z,94.00
2022-12-18T10:55:46.750Z,93.70
2022-12-18T10:58:37.536Z,93.50
2022-12-18T11:01:22.913Z,93.70
2022-12-18T11:04:18.930Z,93.50
2022-12-18T11:07:09.437Z,93.60
2022-12-18T11:10:04.004Z,93.40
2022-12-18T11:12:49.635Z,93.30
2022-12-18T11:15:35.021Z,93.30
2022-12-18T11:18:23.359Z,93.10
2022-12-18T11:21:11.923Z,93.50
2022-12-18T11:23:56.917Z,92.80
2022-12-18T11:26:44.275Z,93.00
2022-12-18T11:29:41.950Z,93.10
2022-12-18T11:32:41.830Z,93.50
2022-12-18T11:35:40.401Z,92.80
2022-12-18T11:38:33.331Z,93.10
2022-12-18T11:41:50.254Z,92.80
2022-12-18T11:45:00.533Z,92.90
2022-12-18T11:47:50.346Z,93.70
2022-12-18T11:50:51.541Z,93.50
2022-12-18T11:53:39.097Z,97.10
2022-12-18T11:56:34.749Z,97.40
2022-12-18T11:59:26.653Z,95.30
2022-12-18T12:03:04.924Z,94.60
2022-12-18T12:05:57.253Z,95.00
2022-12-18T12:08:55.453Z,95.30
2022-12-18T12:12:09.751Z,94.80
2022-12-18T12:15:26.433Z,94.10
2022-12-18T12:18:23.586Z,95.20
2022-12-18T12:21:29.425Z,95.00
2022-12-18T12:24:43.506Z,94.40
2022-12-18T12:27:45.371Z,95.50
2022-12-18T12:30:51.060Z,95.30
2022-12-18T12:33:41.627Z,95.40
2022-12-18T12:37:11.184Z,94.90
2022-12-18T12:39:56.849Z,95.20
2022-12-18T12:43:20.651Z,95.60
2022-12-18T12:46:07.568Z,95.40
2022-12-18T12:48:59.962Z,95.50
2022-12-18T12:51:47.986Z,95.60
2022-12-18T12:54:35.666Z,95.40
2022-12-18T12:57:31.169Z,95.00
2022-12-18T13:00:20.117Z,95.80
2022-12-18T13:03:32.398Z,96.20
2022-12-18T13:06:34.037Z,95.70
2022-12-18T13:09:19.795Z,95.00
2022-12-18T13:12:33.336Z,95.30
2022-12-18T13:15:39.842Z,95.30
2022-12-18T13:18:26.549Z,95.30
2022-12-18T13:21:30.864Z,95.30
2022-12-18T13:24:24.702Z,95.30
2022-12-18T13:27:41.080Z,95.50
2022-12-18T13:30:35.329Z,95.70
2022-12-18T13:33:23.393Z,95.60
2022-12-18T13:36:28.148Z,95.90
2022-12-18T13:39:23.830Z,95.90
2022-12-18T13:42:32.897Z,95.70
2022-12-18T13:45:38.894Z,96.10
2022-12-18T13:48:27.258Z,95.80
2022-12-18T13:51:18.944Z,95.90
2022-12-18T13:54:20.725Z,96.20
2022-12-18T13:57:07.649Z,96.00
2022-12-18T13:59:53.284Z,95.90
2022-12-18T14:02:39.326Z,95.90
2022-12-18T14:05:33.189Z,96.20
2022-12-18T14:08:19.495Z,96.20
2022-12-18T14:11:06.444Z,96.50
2022-12-18T14:13:53.620Z,96.70
2022-12-18T14:16:41.763Z,96.70
2022-12-18T14:19:28.805Z,96.80
2022-12-18T14:22:22.562Z,97.00
2022-12-18T14:25:13.722Z,97.00
2022-12-18T14:28:08.631Z,97.20
2022-12-18T14:30:55.628Z,97.40
2022-12-18T14:33:41.715Z,97.50
2022-12-18T14:36:30.210Z,97.50
2022-12-18T14:39:19.039Z,97.60
2022-12-18T14:42:04.428Z,97.70
2022-12-18T14:45:12.808Z,97.60
2022-12-18T14:47:55.727Z,97.70
2022-12-18T14:50:41.149Z,97.60
2022-12-18T14:53:40.278Z,97.70
2022-12-18T14:56:26.831Z,97.60
2022-12-18T14:59:24.672Z,97.50
2022-12-18T15:02:26.262Z,97.60
2022-12-18T15:05:14.891Z,97.60
2022-12-18T15:08:01.555Z,97.90
2022-12-18T15:10:49.753Z,98.20
2022-12-18T15:13:34.954Z,98.10
2022-12-18T15:16:21.632Z,98.50
2022-12-18T15:19:08.932Z,98.70
2022-12-18T15:21:54.347Z,98.90
2022-12-18T15:24:39.851Z,99.00
2022-12-18T15:27:32.498Z,99.00
2022-12-18T15:30:20.605Z,99.00
2022-12-18T15:33:26.162Z,99.00
2022-12-18T15:36:16.497Z,99.10
2022-12-18T15:39:06.802Z,99.00
2022-12-18T15:42:11.220Z,99.00
2022-12-18T15:44:56.781Z,99.20
2022-12-18T15:47:45.156Z,99.00
2022-12-18T15:50:30.424Z,99.10
2022-12-18T15:53:16.325Z,98.90
2022-12-18T15:56:20.134Z,99.10
2022-12-18T15:59:12.094Z,99.00
2022-12-18T16:01:57.469Z,99.00
2022-12-18T16:04:42.801Z,98.80
2022-12-18T16:07:30.730Z,98.80
2022-12-18T16:10:17.018Z,99.90
2022-12-18T16:13:02.427Z,99.90
2022-12-18T16:15:48.223Z,99.90
2022-12-18T16:18:33.408Z,99.90
2022-12-18T16:21:18.766Z,99.90
2022-12-18T16:24:04.237Z,99.50
2022-12-18T16:26:52.194Z,99.40
2022-12-18T16:29:37.306Z,99.90
2022-12-18T16:32:23.670Z,99.10
2022-12-18T16:35:14.682Z,98.50
2022-12-18T16:37:59.836Z,98.90
2022-12-18T16:41:03.968Z,99.30
2022-12-18T16:43:54.696Z,99.40
2022-12-18T16:46:44.123Z,99.40
2022-12-18T16:49:30.332Z,99.50
2022-12-18T16:52:15.548Z,99.30
2022-12-18T16:55:01.586Z,99.60
2022-12-18T16:57:46.857Z,98.90
2022-12-18T17:00:32.288Z,98.90
2022-12-18T17:03:17.969Z,99.40
2022-12-18T17:06:07.013Z,99.10
2022-12-18T17:09:02.092Z,98.80
2022-12-18T17:11:47.467Z,99.40
2022-12-18T17:14:33.733Z,98.80
2022-12-18T17:17:21.921Z,99.10
2022-12-18T17:20:08.595Z,98.90
2022-12-18T17:22:54.109Z,99.60
2022-12-18T17:25:42.557Z,99.10
2022-12-18T17:28:28.766Z,99.20
2022-12-18T17:31:19.985Z,98.90
2022-12-18T17:34:05.273Z,98.90
2022-12-18T17:36:50.790Z,98.70
2022-12-18T17:39:36.317Z,99.00
2022-12-18T17:42:21.497Z,98.70
2022-12-18T17:45:07.503Z,98.70
2022-12-18T17:47:58.211Z,98.80
2022-12-18T17:50:45.818Z,98.40
2022-12-18T17:53:31.119Z,99.00
2022-12-18T17:56:19.897Z,99.00
2022-12-18T17:59:06.774Z,98.80
2022-12-18T18:01:51.962Z,98.50
2022-12-18T18:04:37.170Z,98.10
2022-12-18T18:07:22.569Z,98.60
2022-12-18T18:10:08.217Z,98.30
2022-12-18T18:13:11.799Z,98.40
2022-12-18T18:15:58.837Z,99.40
2022-12-18T18:18:44.131Z,99.20
2022-12-18T18:21:31.002Z,99.90
2022-12-18T18:24:19.052Z,99.50
2022-12-18T18:27:04.342Z,99.20
2022-12-18T18:29:49.734Z,99.60
2022-12-18T18:32:39.494Z,99.60
2022-12-18T18:35:52.750Z,99.90
2022-12-18T18:38:31.112Z,99.40
2022-12-18T18:41:16.466Z,98.80
2022-12-18T18:44:01.450Z,99.10
2022-12-18T18:46:47.061Z,99.00
2022-12-18T18:49:32.277Z,99.20
2022-12-18T18:52:17.661Z,98.90
2022-12-18T18:55:13.322Z,98.70
2022-12-18T18:57:59.268Z,99.10
2022-12-18T19:00:55.234Z,99.90
2022-12-18T19:03:41.476Z,99.90
2022-12-18T19:06:28.395Z,99.20
2022-12-18T19:09:14.341Z,99.90
2022-12-18T19:12:18.220Z,99.80
2022-12-18T19:15:03.866Z,98.70
2022-12-18T19:17:49.053Z,99.00
2022-12-18T19:20:34.457Z,98.80
2022-12-18T19:23:19.633Z,99.70
2022-12-18T19:29:14.642Z,98.50
2022-12-18T19:32:00.350Z,98.90
2022-12-18T19:34:45.686Z,98.90
2022-12-18T19:37:34.936Z,98.90
2022-12-18T19:40:20.506Z,99.20
2022-12-18T19:43:05.729Z,98.90
2022-12-18T19:45:55.467Z,99.30
2022-12-18T19:48:41.279Z,99.50
2022-12-18T19:51:28.852Z,98.40
2022-12-18T19:54:17.260Z,98.50
2022-12-18T19:57:02.957Z,99.00
2022-12-18T19:59:48.253Z,98.80
2022-12-18T20:02:36.503Z,99.30
2022-12-18T20:05:25.206Z,98.90
2022-12-18T20:08:10.694Z,98.90
2022-12-18T20:10:56.066Z,99.10
2022-12-18T20:13:41.611Z,98.60
2022-12-18T20:16:27.794Z,98.60
2022-12-18T20:19:14.008Z,98.80
2022-12-18T20:21:59.949Z,99.30
2022-12-18T20:24:45.316Z,98.20
2022-12-18T20:27:33.213Z,98.30
2022-12-18T20:30:18.438Z,99.00
2022-12-18T20:33:03.880Z,99.10
2022-12-18T20:35:49.224Z,98.80
2022-12-18T20:38:35.630Z,98.70
2022-12-18T20:41:22.780Z,99.00
2022-12-18T20:44:22.961Z,99.30
2022-12-18T20:47:09.033Z,99.50
2022-12-18T20:49:54.529Z,98.90
2022-12-18T20:52:39.849Z,98.90
2022-12-18T20:55:25.315Z,98.40
2022-12-18T20:58:10.818Z,98.80
2022-12-18T21:01:14.122Z,98.20
2022-12-18T21:04:00.602Z,99.10
2022-12-18T21:06:53.342Z,98.90
2022-12-18T21:09:42.988Z,98.80
2022-12-18T21:12:40.373Z,98.40
2022-12-18T21:15:29.484Z,98.50
2022-12-18T21:18:14.879Z,98.70
2022-12-18T21:21:00.194Z,99.00
2022-12-18T21:23:45.753Z,98.90
2022-12-18T21:26:31.880Z,99.10
2022-12-18T21:29:21.151Z,98.20
2022-12-18T21:32:06.458Z,98.70
2022-12-18T21:34:52.311Z,99.50
2022-12-18T21:37:37.673Z,98.50
2022-12-18T21:40:23.393Z,98.70
2022-12-18T21:43:28.518Z,98.40
2022-12-18T21:46:14.012Z,98.90
2022-12-18T21:48:59.274Z,99.00
2022-12-18T21:51:45.540Z,98.90
2022-12-18T21:54:30.828Z,98.90
2022-12-18T21:57:16.515Z,99.00
2022-12-18T22:00:02.144Z,98.70
2022-12-18T22:02:59.917Z,98.40
2022-12-18T22:06:09.456Z,98.30
2022-12-18T22:08:54.823Z,98.80
2022-12-18T22:11:40.477Z,98.50
2022-12-18T22:14:25.705Z,99.00
2022-12-18T22:17:11.104Z,98.60
2022-12-18T22:19:56.808Z,98.50
2022-12-18T22:22:42.281Z,98.70
2022-12-18T22:25:27.792Z,98.80
2022-12-18T22:28:32.433Z,98.70
2022-12-18T22:31:18.084Z,98.90
2022-12-18T22:34:04.524Z,98.60
2022-12-18T22:36:50.006Z,98.60
2022-12-18T22:39:35.100Z,98.70
2022-12-18T22:42:20.466Z,99.00
2022-12-18T22:45:06.141Z,98.80
2022-12-18T22:47:51.504Z,99.30
2022-12-18T22:50:36.984Z,99.30
2022-12-18T22:53:22.454Z,99.40
2022-12-18T22:56:07.910Z,99.50
2022-12-18T22:58:53.240Z,99.30
2022-12-18T23:01:39.078Z,99.30
2022-12-18T23:04:30.617Z,99.30
2022-12-18T23:07:21.820Z,99.50
2022-12-18T23:10:07.452Z,99.40
2022-12-18T23:12:52.648Z,99.40
2022-12-18T23:15:42.643Z,99.50
2022-12-18T23:18:27.917Z,99.60
2022-12-18T23:21:19.522Z,99.70
2022-12-18T23:24:05.877Z,99.60
2022-12-18T23:26:51.462Z,99.70
2022-12-18T23:29:36.982Z,99.60
2022-12-18T23:32:22.024Z,99.60
2022-12-18T23:35:07.778Z,99.60
2022-12-18T23:37:59.424Z,99.70
2022-12-18T23:40:45.215Z,99.70
2022-12-18T23:43:32.779Z,99.70
2022-12-18T23:46:24.249Z,99.70
2022-12-18T23:49:09.796Z,99.80
2022-12-18T23:51:55.231Z,99.70
2022-12-18T23:54:42.021Z,99.80
2022-12-18T23:57:27.348Z,99.80
